sensor_id;sensor_type;location;lat;lon;timestamp;pressure;altitude;pressure_sealevel;temperature;humidity
25610;BME280;13479;49.044;8.716;2023-10-13T04:00:30;98934.56;;;15.54;74.42
25610;BME280;13479;49.044;8.716;2023-10-13T04:02:57;98965.88;;;15.70;74.06
25610;BME280;13479;49.044;8.716;2023-10-13T04:05:35;98986.47;;;15.86;72.88
25610;BME280;13479;49.044;8.716;2023-10-13T04:08:06;98988.97;;;15.88;72.91
25610;BME280;13479;49.044;8.716;2023-10-13T04:10:51;98967.88;;;15.68;72.98
25610;BME280;13479;49.044;8.716;2023-10-13T04:13:18;98931.91;;;15.63;74.09
25610;BME280;13479;49.044;8.716;2023-10-13T04:16:04;98916.34;;;15.50;74.58
25610;BME280;13479;49.044;8.716;2023-10-13T04:18:50;98925.38;;;15.65;74.25
25610;BME280;13479;49.044;8.716;2023-10-13T04:21:25;98943.78;;;15.77;73.72
25610;BME280;13479;49.044;8.716;2023-10-13T04:24:11;98956.16;;;15.94;72.82
25610;BME280;13479;49.044;8.716;2023-10-13T04:26:48;98957.19;;;16.01;72.66
25610;BME280;13479;49.044;8.716;2023-10-13T04:29:32;98957.00;;;16.03;71.91
25610;BME280;13479;49.044;8.716;2023-10-13T04:32:16;98940.09;;;15.94;72.17
25610;BME280;13479;49.044;8.716;2023-10-13T04:34:58;98952.50;;;16.03;71.56
25610;BME280;13479;49.044;8.716;2023-10-13T04:37:35;98940.75;;;16.04;71.52
25610;BME280;13479;49.044;8.716;2023-10-13T04:40:13;98934.09;;;16.00;71.76
25610;BME280;13479;49.044;8.716;2023-10-13T04:42:39;98934.41;;;16.05;71.22
25610;BME280;13479;49.044;8.716;2023-10-13T04:45:16;98934.09;;;16.00;70.90
25610;BME280;13479;49.044;8.716;2023-10-13T04:48:02;98932.59;;;15.98;70.92
25610;BME280;13479;49.044;8.716;2023-10-13T04:50:52;98927.72;;;15.93;70.35
25610;BME280;13479;49.044;8.716;2023-10-13T04:53:40;98930.06;;;15.96;69.85
25610;BME280;13479;49.044;8.716;2023-10-13T04:56:24;98916.00;;;15.94;70.14
25610;BME280;13479;49.044;8.716;2023-10-13T04:59:08;98910.31;;;15.97;69.73
25610;BME280;13479;49.044;8.716;2023-10-13T05:01:43;98896.94;;;15.97;69.86
25610;BME280;13479;49.044;8.716;2023-10-13T05:04:32;98888.25;;;15.87;69.93
25610;BME280;13479;49.044;8.716;2023-10-13T05:07:03;98909.16;;;16.00;69.46
25610;BME280;13479;49.044;8.716;2023-10-13T05:09:47;98914.50;;;16.00;68.92
25610;BME280;13479;49.044;8.716;2023-10-13T05:12:33;98916.03;;;16.02;68.78
25610;BME280;13479;49.044;8.716;2023-10-13T05:15:18;98886.94;;;15.91;68.90
25610;BME280;13479;49.044;8.716;2023-10-13T05:18:04;98916.81;;;16.11;67.90
25610;BME280;13479;49.044;8.716;2023-10-13T05:20:48;98911.97;;;16.15;67.11
25610;BME280;13479;49.044;8.716;2023-10-13T05:23:32;98893.25;;;16.15;67.11
25610;BME280;13479;49.044;8.716;2023-10-13T05:26:16;98884.19;;;16.08;67.23
25610;BME280;13479;49.044;8.716;2023-10-13T05:29:00;98876.34;;;16.06;66.91
25610;BME280;13479;49.044;8.716;2023-10-13T05:31:44;98834.38;;;15.73;68.19
25610;BME280;13479;49.044;8.716;2023-10-13T05:34:27;98813.50;;;15.69;68.46
25610;BME280;13479;49.044;8.716;2023-10-13T05:37:11;98777.91;;;15.52;69.28
25610;BME280;13479;49.044;8.716;2023-10-13T05:39:55;98762.22;;;15.40;70.03
25610;BME280;13479;49.044;8.716;2023-10-13T05:42:39;98778.75;;;15.44;69.84
25610;BME280;13479;49.044;8.716;2023-10-13T05:45:23;98790.63;;;15.41;69.66
25610;BME280;13479;49.044;8.716;2023-10-13T05:48:02;98828.06;;;15.58;68.59
25610;BME280;13479;49.044;8.716;2023-10-13T05:53:11;98899.31;;;15.92;67.47
25610;BME280;13479;49.044;8.716;2023-10-13T05:55:36;98913.50;;;16.01;66.59
25610;BME280;13479;49.044;8.716;2023-10-13T05:58:20;98923.34;;;16.17;65.73
25610;BME280;13479;49.044;8.716;2023-10-13T06:01:04;98900.59;;;16.13;66.22
25610;BME280;13479;49.044;8.716;2023-10-13T06:03:48;98889.03;;;16.20;65.85
25610;BME280;13479;49.044;8.716;2023-10-13T06:06:32;98907.53;;;16.47;64.05
25610;BME280;13479;49.044;8.716;2023-10-13T06:09:16;98897.38;;;16.65;63.09
25610;BME280;13479;49.044;8.716;2023-10-13T06:12:00;98893.25;;;16.86;61.89
25610;BME280;13479;49.044;8.716;2023-10-13T06:14:47;98888.19;;;17.00;61.07
25610;BME280;13479;49.044;8.716;2023-10-13T06:17:31;98858.72;;;16.91;61.25
25610;BME280;13479;49.044;8.716;2023-10-13T06:20:15;98850.72;;;17.14;60.42
25610;BME280;13479;49.044;8.716;2023-10-13T06:22:59;98854.75;;;17.34;59.67
25610;BME280;13479;49.044;8.716;2023-10-13T06:25:50;98830.31;;;17.28;59.98
25610;BME280;13479;49.044;8.716;2023-10-13T06:28:34;98842.22;;;17.49;59.29
25610;BME280;13479;49.044;8.716;2023-10-13T06:31:06;98858.53;;;17.63;58.32
25610;BME280;13479;49.044;8.716;2023-10-13T06:33:32;98850.13;;;17.81;57.65
25610;BME280;13479;49.044;8.716;2023-10-13T06:35:59;98846.81;;;17.94;57.00
25610;BME280;13479;49.044;8.716;2023-10-13T06:38:24;98840.78;;;17.91;57.05
25610;BME280;13479;49.044;8.716;2023-10-13T06:40:50;98828.16;;;18.00;56.81
25610;BME280;13479;49.044;8.716;2023-10-13T06:43:18;98832.00;;;18.13;56.48
25610;BME280;13479;49.044;8.716;2023-10-13T06:45:47;98835.19;;;18.16;56.43
25610;BME280;13479;49.044;8.716;2023-10-13T06:48:24;98835.25;;;18.38;55.75
25610;BME280;13479;49.044;8.716;2023-10-13T06:50:50;98824.41;;;18.31;56.16
25610;BME280;13479;49.044;8.716;2023-10-13T06:53:20;98811.06;;;18.38;56.19
25610;BME280;13479;49.044;8.716;2023-10-13T06:55:45;98810.56;;;18.49;56.12
25610;BME280;13479;49.044;8.716;2023-10-13T06:58:13;98833.59;;;18.74;55.13
25610;BME280;13479;49.044;8.716;2023-10-13T07:00:40;98853.44;;;19.09;53.48
25610;BME280;13479;49.044;8.716;2023-10-13T07:03:06;98845.88;;;19.20;53.19
25610;BME280;13479;49.044;8.716;2023-10-13T07:05:38;98844.16;;;19.34;53.02
25610;BME280;13479;49.044;8.716;2023-10-13T07:08:07;98825.09;;;19.35;53.13
25610;BME280;13479;49.044;8.716;2023-10-13T07:10:34;98829.75;;;19.48;52.87
25610;BME280;13479;49.044;8.716;2023-10-13T07:13:18;98828.69;;;19.71;52.84
25610;BME280;13479;49.044;8.716;2023-10-13T07:15:45;98839.97;;;20.65;50.80
25610;BME280;13479;49.044;8.716;2023-10-13T07:18:14;98848.88;;;21.95;47.88
25610;BME280;13479;49.044;8.716;2023-10-13T07:20:42;98861.75;;;23.10;44.82
25610;BME280;13479;49.044;8.716;2023-10-13T07:23:13;98868.19;;;24.36;42.01
25610;BME280;13479;49.044;8.716;2023-10-13T07:25:55;98879.94;;;25.58;39.76
25610;BME280;13479;49.044;8.716;2023-10-13T07:28:28;98903.19;;;26.73;37.09
25610;BME280;13479;49.044;8.716;2023-10-13T07:30:53;98917.22;;;27.52;36.12
25610;BME280;13479;49.044;8.716;2023-10-13T07:33:18;98924.22;;;28.55;33.75
25610;BME280;13479;49.044;8.716;2023-10-13T07:35:47;98929.25;;;29.08;32.34
25610;BME280;13479;49.044;8.716;2023-10-13T07:38:16;98938.81;;;29.33;32.00
25610;BME280;13479;49.044;8.716;2023-10-13T07:40:41;98933.56;;;29.53;31.90
25610;BME280;13479;49.044;8.716;2023-10-13T07:43:07;98943.50;;;29.65;31.55
25610;BME280;13479;49.044;8.716;2023-10-13T07:45:37;98943.66;;;29.53;31.54
25610;BME280;13479;49.044;8.716;2023-10-13T07:48:04;98942.03;;;29.89;31.11
25610;BME280;13479;49.044;8.716;2023-10-13T07:50:38;98952.41;;;30.20;30.43
25610;BME280;13479;49.044;8.716;2023-10-13T07:53:04;98939.41;;;30.38;30.46
25610;BME280;13479;49.044;8.716;2023-10-13T07:55:45;98961.00;;;30.87;29.85
25610;BME280;13479;49.044;8.716;2023-10-13T07:58:12;98950.94;;;31.08;29.08
25610;BME280;13479;49.044;8.716;2023-10-13T08:00:38;98959.50;;;31.12;28.86
25610;BME280;13479;49.044;8.716;2023-10-13T08:03:14;98955.94;;;31.11;28.58
25610;BME280;13479;49.044;8.716;2023-10-13T08:05:40;98958.19;;;31.35;28.82
25610;BME280;13479;49.044;8.716;2023-10-13T08:08:22;98959.03;;;31.67;27.77
25610;BME280;13479;49.044;8.716;2023-10-13T08:10:50;98953.81;;;31.45;28.39
25610;BME280;13479;49.044;8.716;2023-10-13T08:13:21;98959.63;;;31.69;28.05
25610;BME280;13479;49.044;8.716;2023-10-13T08:15:46;98955.19;;;31.99;27.70
25610;BME280;13479;49.044;8.716;2023-10-13T08:18:14;98946.72;;;31.80;27.76
25610;BME280;13479;49.044;8.716;2023-10-13T08:20:56;98951.59;;;31.52;28.20
25610;BME280;13479;49.044;8.716;2023-10-13T08:23:31;98939.53;;;31.42;28.82
25610;BME280;13479;49.044;8.716;2023-10-13T08:26:24;98944.47;;;31.51;28.19
25610;BME280;13479;49.044;8.716;2023-10-13T08:29:02;98934.34;;;31.51;28.89
25610;BME280;13479;49.044;8.716;2023-10-13T08:31:46;98933.97;;;32.51;27.57
25610;BME280;13479;49.044;8.716;2023-10-13T08:34:47;98926.44;;;32.77;27.29
25610;BME280;13479;49.044;8.716;2023-10-13T08:37:13;98936.91;;;32.86;27.24
25610;BME280;13479;49.044;8.716;2023-10-13T08:39:44;98933.94;;;32.61;26.65
25610;BME280;13479;49.044;8.716;2023-10-13T08:42:35;98936.22;;;32.44;27.09
25610;BME280;13479;49.044;8.716;2023-10-13T08:45:10;98936.53;;;32.16;27.85
25610;BME280;13479;49.044;8.716;2023-10-13T08:47:51;98924.72;;;32.11;27.51
25610;BME280;13479;49.044;8.716;2023-10-13T08:50:22;98920.00;;;32.47;27.86
25610;BME280;13479;49.044;8.716;2023-10-13T08:53:14;98930.09;;;33.23;26.36
25610;BME280;13479;49.044;8.716;2023-10-13T08:56:10;98923.97;;;32.86;26.69
25610;BME280;13479;49.044;8.716;2023-10-13T08:58:38;98921.44;;;32.24;27.72
25610;BME280;13479;49.044;8.716;2023-10-13T09:01:26;98894.00;;;33.30;27.02
25610;BME280;13479;49.044;8.716;2023-10-13T09:04:19;98905.69;;;34.88;25.04
25610;BME280;13479;49.044;8.716;2023-10-13T09:06:49;98915.69;;;35.22;24.74
25610;BME280;13479;49.044;8.716;2023-10-13T09:12:00;98927.03;;;35.01;25.22
25610;BME280;13479;49.044;8.716;2023-10-13T09:14:55;98909.72;;;34.52;25.47
25610;BME280;13479;49.044;8.716;2023-10-13T09:17:24;98895.25;;;33.87;26.45
25610;BME280;13479;49.044;8.716;2023-10-13T09:20:02;98900.88;;;33.32;26.58
25610;BME280;13479;49.044;8.716;2023-10-13T09:22:47;98882.28;;;32.69;27.60
25610;BME280;13479;49.044;8.716;2023-10-13T09:25:34;98873.41;;;32.87;27.38
25610;BME280;13479;49.044;8.716;2023-10-13T09:28:13;98865.38;;;34.00;25.57
25610;BME280;13479;49.044;8.716;2023-10-13T09:30:45;98871.78;;;34.87;24.62
25610;BME280;13479;49.044;8.716;2023-10-13T09:33:10;98885.13;;;36.31;24.23
25610;BME280;13479;49.044;8.716;2023-10-13T09:35:46;98898.81;;;37.97;22.41
25610;BME280;13479;49.044;8.716;2023-10-13T09:38:19;98897.28;;;38.63;21.17
25610;BME280;13479;49.044;8.716;2023-10-13T09:40:46;98893.91;;;38.84;21.17
25610;BME280;13479;49.044;8.716;2023-10-13T09:43:27;98890.81;;;38.94;20.45
25610;BME280;13479;49.044;8.716;2023-10-13T09:46:01;98908.78;;;39.84;19.68
25610;BME280;13479;49.044;8.716;2023-10-13T09:48:38;98897.41;;;40.07;19.38
25610;BME280;13479;49.044;8.716;2023-10-13T09:51:13;98900.34;;;40.20;19.50
25610;BME280;13479;49.044;8.716;2023-10-13T09:53:40;98889.91;;;40.38;19.03
25610;BME280;13479;49.044;8.716;2023-10-13T09:56:28;98897.22;;;40.81;19.18
25610;BME280;13479;49.044;8.716;2023-10-13T09:58:59;98880.22;;;40.14;18.69
25610;BME280;13479;49.044;8.716;2023-10-13T10:01:53;98884.44;;;40.50;18.78
25610;BME280;13479;49.044;8.716;2023-10-13T10:04:23;98885.84;;;40.35;18.89
25610;BME280;13479;49.044;8.716;2023-10-13T10:06:55;98874.69;;;40.44;19.00
25610;BME280;13479;49.044;8.716;2023-10-13T10:09:31;98886.38;;;40.88;18.09
25610;BME280;13479;49.044;8.716;2023-10-13T10:12:42;98880.53;;;40.81;18.38
25610;BME280;13479;49.044;8.716;2023-10-13T10:15:34;98877.69;;;40.69;18.70
25610;BME280;13479;49.044;8.716;2023-10-13T10:18:01;98878.41;;;40.18;19.06
25610;BME280;13479;49.044;8.716;2023-10-13T10:20:32;98873.56;;;40.36;19.03
25610;BME280;13479;49.044;8.716;2023-10-13T10:22:59;98870.66;;;40.33;18.46
25610;BME280;13479;49.044;8.716;2023-10-13T10:25:32;98857.53;;;40.42;19.03
25610;BME280;13479;49.044;8.716;2023-10-13T10:28:03;98860.75;;;40.14;19.23
25610;BME280;13479;49.044;8.716;2023-10-13T10:30:33;98859.91;;;39.83;19.34
25610;BME280;13479;49.044;8.716;2023-10-13T10:33:00;98854.19;;;39.80;19.04
25610;BME280;13479;49.044;8.716;2023-10-13T10:35:28;98837.09;;;39.43;18.83
25610;BME280;13479;49.044;8.716;2023-10-13T10:38:16;98835.75;;;39.66;19.41
25610;BME280;13479;49.044;8.716;2023-10-13T10:40:57;98832.91;;;39.93;18.89
25610;BME280;13479;49.044;8.716;2023-10-13T10:43:36;98824.03;;;39.99;18.43
25610;BME280;13479;49.044;8.716;2023-10-13T10:46:27;98823.50;;;40.06;18.48
25610;BME280;13479;49.044;8.716;2023-10-13T10:48:53;98821.81;;;39.84;18.34
25610;BME280;13479;49.044;8.716;2023-10-13T10:51:28;98813.94;;;39.21;19.52
25610;BME280;13479;49.044;8.716;2023-10-13T10:53:57;98799.41;;;38.54;20.53
25610;BME280;13479;49.044;8.716;2023-10-13T10:56:24;98784.50;;;38.32;20.54
25610;BME280;13479;49.044;8.716;2023-10-13T10:58:55;98779.56;;;38.03;20.95
25610;BME280;13479;49.044;8.716;2023-10-13T11:01:25;98774.47;;;37.64;19.93
25610;BME280;13479;49.044;8.716;2023-10-13T11:03:59;98772.72;;;37.14;21.87
25610;BME280;13479;49.044;8.716;2023-10-13T11:06:34;98766.97;;;36.65;21.67
25610;BME280;13479;49.044;8.716;2023-10-13T11:09:04;98766.03;;;35.91;22.23
25610;BME280;13479;49.044;8.716;2023-10-13T11:11:32;98748.22;;;34.89;21.93
25610;BME280;13479;49.044;8.716;2023-10-13T11:14:01;98735.53;;;34.31;22.93
25610;BME280;13479;49.044;8.716;2023-10-13T11:16:45;98728.41;;;33.38;21.87
25610;BME280;13479;49.044;8.716;2023-10-13T11:19:15;98722.84;;;32.74;22.85
25610;BME280;13479;49.044;8.716;2023-10-13T11:21:41;98719.22;;;32.39;23.52
25610;BME280;13479;49.044;8.716;2023-10-13T11:24:07;98702.41;;;31.95;24.65
25610;BME280;13479;49.044;8.716;2023-10-13T11:26:36;98697.94;;;31.39;25.06
25610;BME280;13479;49.044;8.716;2023-10-13T11:29:18;98693.28;;;31.08;24.81
25610;BME280;13479;49.044;8.716;2023-10-13T11:31:47;98676.88;;;30.77;25.22
25610;BME280;13479;49.044;8.716;2023-10-13T11:34:18;98668.09;;;30.55;25.44
25610;BME280;13479;49.044;8.716;2023-10-13T11:36:44;98660.09;;;30.32;26.34
25610;BME280;13479;49.044;8.716;2023-10-13T11:39:09;98649.41;;;30.26;26.60
25610;BME280;13479;49.044;8.716;2023-10-13T11:41:36;98654.88;;;30.20;27.40
25610;BME280;13479;49.044;8.716;2023-10-13T11:44:10;98654.59;;;30.17;26.29
25610;BME280;13479;49.044;8.716;2023-10-13T11:46:48;98641.69;;;30.02;25.77
25610;BME280;13479;49.044;8.716;2023-10-13T11:49:14;98647.63;;;29.83;25.76
25610;BME280;13479;49.044;8.716;2023-10-13T11:51:48;98646.50;;;29.79;28.36
25610;BME280;13479;49.044;8.716;2023-10-13T11:56:46;98630.75;;;29.33;27.54
25610;BME280;13479;49.044;8.716;2023-10-13T11:59:12;98619.38;;;29.09;28.03
25610;BME280;13479;49.044;8.716;2023-10-13T12:01:47;98610.00;;;28.94;28.12
25610;BME280;13479;49.044;8.716;2023-10-13T12:04:31;98603.97;;;28.60;28.01
25610;BME280;13479;49.044;8.716;2023-10-13T12:07:06;98594.09;;;28.54;28.40
25610;BME280;13479;49.044;8.716;2023-10-13T12:09:51;98582.59;;;28.46;28.45
25610;BME280;13479;49.044;8.716;2023-10-13T12:12:19;98580.09;;;28.45;27.86
25610;BME280;13479;49.044;8.716;2023-10-13T12:14:45;98573.47;;;28.30;29.00
25610;BME280;13479;49.044;8.716;2023-10-13T12:17:28;98565.78;;;28.27;27.89
25610;BME280;13479;49.044;8.716;2023-10-13T12:20:03;98563.91;;;28.33;28.42
25610;BME280;13479;49.044;8.716;2023-10-13T12:22:37;98562.06;;;28.39;27.34
25610;BME280;13479;49.044;8.716;2023-10-13T12:25:11;98568.88;;;28.36;27.82
25610;BME280;13479;49.044;8.716;2023-10-13T12:27:59;98564.44;;;28.30;27.14
25610;BME280;13479;49.044;8.716;2023-10-13T12:30:38;98564.19;;;28.31;27.54
25610;BME280;13479;49.044;8.716;2023-10-13T12:33:22;98561.97;;;28.28;27.86
25610;BME280;13479;49.044;8.716;2023-10-13T12:36:00;98558.19;;;28.34;27.27
25610;BME280;13479;49.044;8.716;2023-10-13T12:38:30;98544.09;;;28.43;27.45
25610;BME280;13479;49.044;8.716;2023-10-13T12:41:05;98559.09;;;28.45;27.08
25610;BME280;13479;49.044;8.716;2023-10-13T12:43:49;98561.06;;;28.50;27.13
25610;BME280;13479;49.044;8.716;2023-10-13T12:46:32;98553.50;;;28.62;27.12
25610;BME280;13479;49.044;8.716;2023-10-13T12:49:16;98560.69;;;28.74;26.93
25610;BME280;13479;49.044;8.716;2023-10-13T12:52:01;98561.50;;;28.74;26.72
25610;BME280;13479;49.044;8.716;2023-10-13T12:54:27;98565.13;;;28.85;26.91
25610;BME280;13479;49.044;8.716;2023-10-13T12:57:00;98557.41;;;28.72;26.82
25610;BME280;13479;49.044;8.716;2023-10-13T12:59:25;98554.06;;;28.70;27.00
25610;BME280;13479;49.044;8.716;2023-10-13T13:01:54;98557.88;;;28.63;26.69
25610;BME280;13479;49.044;8.716;2023-10-13T13:04:19;98555.16;;;28.63;26.85
25610;BME280;13479;49.044;8.716;2023-10-13T13:06:57;98555.16;;;28.69;26.46
25610;BME280;13479;49.044;8.716;2023-10-13T13:09:22;98551.19;;;28.81;26.57
25610;BME280;13479;49.044;8.716;2023-10-13T13:11:54;98547.69;;;28.91;26.34
25610;BME280;13479;49.044;8.716;2023-10-13T13:14:23;98541.72;;;29.00;26.08
25610;BME280;13479;49.044;8.716;2023-10-13T13:16:54;98543.34;;;29.01;26.14
25610;BME280;13479;49.044;8.716;2023-10-13T13:19:19;98544.47;;;29.05;26.07
25610;BME280;13479;49.044;8.716;2023-10-13T13:21:51;98548.00;;;29.00;26.67
25610;BME280;13479;49.044;8.716;2023-10-13T13:24:16;98534.84;;;28.92;25.79
25610;BME280;13479;49.044;8.716;2023-10-13T13:26:41;98536.13;;;28.79;26.35
25610;BME280;13479;49.044;8.716;2023-10-13T13:29:07;98533.63;;;28.72;26.58
25610;BME280;13479;49.044;8.716;2023-10-13T13:31:34;98528.41;;;28.71;26.66
25610;BME280;13479;49.044;8.716;2023-10-13T13:34:06;98527.28;;;28.61;25.98
25610;BME280;13479;49.044;8.716;2023-10-13T13:36:31;98520.09;;;28.50;26.27
25610;BME280;13479;49.044;8.716;2023-10-13T13:38:57;98509.34;;;28.38;25.73
25610;BME280;13479;49.044;8.716;2023-10-13T13:41:25;98515.50;;;28.18;25.72
25610;BME280;13479;49.044;8.716;2023-10-13T13:43:50;98495.56;;;28.17;25.74
25610;BME280;13479;49.044;8.716;2023-10-13T13:46:23;98497.81;;;27.98;26.27
25610;BME280;13479;49.044;8.716;2023-10-13T13:48:59;98497.53;;;27.95;26.25
25610;BME280;13479;49.044;8.716;2023-10-13T13:51:26;98493.13;;;27.88;25.91
25610;BME280;13479;49.044;8.716;2023-10-13T13:53:54;98483.09;;;27.94;26.97
25610;BME280;13479;49.044;8.716;2023-10-13T13:56:19;98471.69;;;28.02;26.79
25610;BME280;13479;49.044;8.716;2023-10-13T13:58:46;98465.16;;;28.03;26.91
25610;BME280;13479;49.044;8.716;2023-10-13T14:01:11;98466.38;;;28.18;26.90
25610;BME280;13479;49.044;8.716;2023-10-13T14:03:45;98458.59;;;28.37;26.49
25610;BME280;13479;49.044;8.716;2023-10-13T14:06:15;98462.88;;;28.28;26.36
25610;BME280;13479;49.044;8.716;2023-10-13T14:08:44;98452.31;;;28.36;26.70
25610;BME280;13479;49.044;8.716;2023-10-13T14:11:13;98459.34;;;28.27;26.26
25610;BME280;13479;49.044;8.716;2023-10-13T14:13:39;98453.31;;;28.20;26.56
25610;BME280;13479;49.044;8.716;2023-10-13T14:16:15;98452.06;;;28.05;25.58
25610;BME280;13479;49.044;8.716;2023-10-13T14:18:44;98450.34;;;27.94;26.20
25610;BME280;13479;49.044;8.716;2023-10-13T14:21:10;98453.38;;;27.98;26.41
25610;BME280;13479;49.044;8.716;2023-10-13T14:23:42;98444.91;;;27.99;26.65
25610;BME280;13479;49.044;8.716;2023-10-13T14:26:07;98443.84;;;28.00;26.57
25610;BME280;13479;49.044;8.716;2023-10-13T14:28:34;98443.84;;;28.00;26.63
25610;BME280;13479;49.044;8.716;2023-10-13T14:31:04;98443.59;;;28.02;26.31
25610;BME280;13479;49.044;8.716;2023-10-13T14:33:35;98434.88;;;28.05;26.73
25610;BME280;13479;49.044;8.716;2023-10-13T14:36:02;98438.31;;;27.90;26.57
25610;BME280;13479;49.044;8.716;2023-10-13T14:38:30;98429.03;;;27.86;27.29
25610;BME280;13479;49.044;8.716;2023-10-13T14:40:57;98414.19;;;27.77;26.88
25610;BME280;13479;49.044;8.716;2023-10-13T14:43:23;98409.38;;;27.89;27.09
25610;BME280;13479;49.044;8.716;2023-10-13T14:45:53;98411.22;;;27.78;26.92
25610;BME280;13479;49.044;8.716;2023-10-13T14:48:18;98403.56;;;27.75;27.28
25610;BME280;13479;49.044;8.716;2023-10-13T14:50:43;98396.75;;;27.78;27.77
25610;BME280;13479;49.044;8.716;2023-10-13T14:53:10;98398.38;;;27.73;27.39
25610;BME280;13479;49.044;8.716;2023-10-13T14:55:36;98391.88;;;27.80;27.80
25610;BME280;13479;49.044;8.716;2023-10-13T14:58:04;98390.50;;;27.77;27.34
25610;BME280;13479;49.044;8.716;2023-10-13T15:00:38;98378.44;;;27.73;28.18
25610;BME280;13479;49.044;8.716;2023-10-13T15:03:04;98371.63;;;27.70;27.91
25610;BME280;13479;49.044;8.716;2023-10-13T15:05:31;98379.16;;;27.58;28.34
25610;BME280;13479;49.044;8.716;2023-10-13T15:07:58;98369.84;;;27.54;28.50
25610;BME280;13479;49.044;8.716;2023-10-13T15:10:25;98370.38;;;27.51;28.59
25610;BME280;13479;49.044;8.716;2023-10-13T15:12:50;98364.63;;;27.47;29.03
25610;BME280;13479;49.044;8.716;2023-10-13T15:15:15;98361.53;;;27.43;29.15
25610;BME280;13479;49.044;8.716;2023-10-13T15:17:42;98365.63;;;27.41;28.08
25610;BME280;13479;49.044;8.716;2023-10-13T15:20:07;98375.09;;;27.33;27.50
25610;BME280;13479;49.044;8.716;2023-10-13T15:22:40;98384.88;;;27.29;27.16
25610;BME280;13479;49.044;8.716;2023-10-13T15:25:06;98387.03;;;27.27;26.74
25610;BME280;13479;49.044;8.716;2023-10-13T15:27:45;98386.97;;;27.22;26.66
25610;BME280;13479;49.044;8.716;2023-10-13T15:30:16;98387.50;;;27.19;26.68
25610;BME280;13479;49.044;8.716;2023-10-13T15:32:49;98392.06;;;27.13;27.02
25610;BME280;13479;49.044;8.716;2023-10-13T15:35:16;98388.47;;;27.07;27.07
25610;BME280;13479;49.044;8.716;2023-10-13T15:37:41;98381.78;;;26.93;27.42
25610;BME280;13479;49.044;8.716;2023-10-13T15:40:12;98376.06;;;26.94;26.61
25610;BME280;13479;49.044;8.716;2023-10-13T15:42:43;98368.72;;;26.95;27.34
25610;BME280;13479;49.044;8.716;2023-10-13T15:45:10;98375.81;;;26.96;27.54
25610;BME280;13479;49.044;8.716;2023-10-13T15:47:48;98367.47;;;26.80;27.71
25610;BME280;13479;49.044;8.716;2023-10-13T15:50:14;98373.25;;;26.67;26.81
25610;BME280;13479;49.044;8.716;2023-10-13T15:52:46;98365.06;;;26.62;27.35
25610;BME280;13479;49.044;8.716;2023-10-13T15:55:15;98368.31;;;26.64;27.17
25610;BME280;13479;49.044;8.716;2023-10-13T15:57:42;98363.94;;;26.63;26.93
25610;BME280;13479;49.044;8.716;2023-10-13T16:00:09;98358.19;;;26.59;27.37
25610;BME280;13479;49.044;8.716;2023-10-13T16:02:56;98349.41;;;26.52;27.43
25610;BME280;13479;49.044;8.716;2023-10-13T16:05:31;98345.94;;;26.57;27.29
25610;BME280;13479;49.044;8.716;2023-10-13T16:08:00;98346.38;;;26.48;27.29
25610;BME280;13479;49.044;8.716;2023-10-13T16:10:25;98341.69;;;26.44;27.32
25610;BME280;13479;49.044;8.716;2023-10-13T16:12:52;98342.25;;;26.24;26.56
25610;BME280;13479;49.044;8.716;2023-10-13T16:15:17;98338.31;;;26.14;27.70
25610;BME280;13479;49.044;8.716;2023-10-13T16:17:43;98328.34;;;26.03;27.70
25610;BME280;13479;49.044;8.716;2023-10-13T16:20:09;98331.72;;;26.10;27.99
25610;BME280;13479;49.044;8.716;2023-10-13T16:22:44;98317.25;;;25.87;28.30
25610;BME280;13479;49.044;8.716;2023-10-13T16:25:14;98313.13;;;25.85;28.21
25610;BME280;13479;49.044;8.716;2023-10-13T16:27:41;98315.44;;;25.76;28.66
25610;BME280;13479;49.044;8.716;2023-10-13T16:30:12;98305.06;;;25.56;28.74
25610;BME280;13479;49.044;8.716;2023-10-13T16:32:43;98304.19;;;25.50;29.13
25610;BME280;13479;49.044;8.716;2023-10-13T16:35:13;98306.38;;;25.36;28.84
25610;BME280;13479;49.044;8.716;2023-10-13T16:37:41;98304.34;;;25.26;28.87
25610;BME280;13479;49.044;8.716;2023-10-13T16:40:07;98285.63;;;25.13;29.98
25610;BME280;13479;49.044;8.716;2023-10-13T16:42:34;98294.84;;;25.12;29.32
25610;BME280;13479;49.044;8.716;2023-10-13T16:45:00;98291.53;;;25.10;29.65
25610;BME280;13479;49.044;8.716;2023-10-13T16:47:43;98292.00;;;24.90;29.42
25610;BME280;13479;49.044;8.716;2023-10-13T16:50:11;98288.78;;;24.76;29.99
25610;BME280;13479;49.044;8.716;2023-10-13T16:52:37;98282.06;;;24.66;30.00
25610;BME280;13479;49.044;8.716;2023-10-13T16:55:03;98275.34;;;24.69;29.89
25610;BME280;13479;49.044;8.716;2023-10-13T16:57:31;98273.22;;;24.71;30.14
25610;BME280;13479;49.044;8.716;2023-10-13T16:59:56;98280.00;;;24.86;28.52
25610;BME280;13479;49.044;8.716;2023-10-13T17:02:21;98293.31;;;24.87;28.53
25610;BME280;13479;49.044;8.716;2023-10-13T17:04:47;98300.13;;;24.61;29.75
25610;BME280;13479;49.044;8.716;2023-10-13T17:07:12;98289.91;;;24.51;29.22
25610;BME280;13479;49.044;8.716;2023-10-13T17:09:39;98287.31;;;24.44;29.52
25610;BME280;13479;49.044;8.716;2023-10-13T17:12:05;98277.50;;;24.55;29.39
25610;BME280;13479;49.044;8.716;2023-10-13T17:14:30;98291.06;;;24.55;29.26
25610;BME280;13479;49.044;8.716;2023-10-13T17:16:55;98280.69;;;24.52;29.43
25610;BME280;13479;49.044;8.716;2023-10-13T17:19:23;98284.41;;;24.34;29.92
25610;BME280;13479;49.044;8.716;2023-10-13T17:21:48;98281.06;;;24.15;30.24
25610;BME280;13479;49.044;8.716;2023-10-13T17:24:14;98264.22;;;24.01;30.61
25610;BME280;13479;49.044;8.716;2023-10-13T17:26:40;98262.09;;;23.91;30.75
25610;BME280;13479;49.044;8.716;2023-10-13T17:29:05;98256.41;;;24.04;30.34
25610;BME280;13479;49.044;8.716;2023-10-13T17:31:34;98250.19;;;23.92;30.68
25610;BME280;13479;49.044;8.716;2023-10-13T17:34:00;98243.03;;;23.74;31.17
25610;BME280;13479;49.044;8.716;2023-10-13T17:36:27;98244.09;;;23.61;31.74
25610;BME280;13479;49.044;8.716;2023-10-13T17:38:54;98249.63;;;23.42;31.91